Time;durP1;ratioP1;P1;durP2;ratioP2;P2;SDS_P1;SDS_P2;PMS_P1;PMS_P2;Temp;Humidity;BMP_temperature;BMP_pressure;BME280_temperature;BME280_humidity;BME280_pressure;Samples;Min_cycle;Max_cycle;Signal;HPM_P1;HPM_P2
2022/04/14 00:00:58;;;;;;;46.55;41.10;;;;;;;-148.33;100.00;56587.81;5047978;28;20068;-57
2022/04/14 00:03:23;;;;;;;44.90;40.53;;;;;;;-148.33;100.00;56587.81;5048052;28;20021;-57
2022/04/14 00:05:49;;;;;;;47.17;42.05;;;;;;;-148.33;100.00;56587.81;5048030;28;20032;-56
2022/04/14 00:08:14;;;;;;;44.85;40.30;;;;;;;-148.33;100.00;56587.81;5047811;28;20420;-56
2022/04/14 00:10:39;;;;;;;44.58;40.03;;;;;;;-148.33;100.00;56587.81;5047630;28;20025;-56
2022/04/14 00:13:05;;;;;;;46.33;41.60;;;;;;;-148.33;100.00;56587.81;5047986;28;20028;-57
2022/04/14 00:15:30;;;;;;;45.03;40.47;;;;;;;-148.33;100.00;56587.81;5047657;28;20107;-56
2022/04/14 00:17:55;;;;;;;46.90;42.08;;;;;;;-148.33;100.00;56587.81;5047332;28;20029;-56
2022/04/14 00:20:20;;;;;;;45.28;40.53;;;;;;;-148.33;100.00;56587.81;5046386;28;20059;-56
2022/04/14 00:22:46;;;;;;;45.63;41.13;;;;;;;-148.33;100.00;56587.81;5048060;28;20295;-56
2022/04/14 00:25:11;;;;;;;46.22;41.63;;;;;;;-148.33;100.00;56587.81;5047912;28;20028;-56
2022/04/14 00:27:38;;;;;;;47.15;42.40;;;;;;;-148.33;100.00;56587.81;5047916;28;20056;-55
2022/04/14 00:30:04;;;;;;;44.58;40.08;;;;;;;-148.33;100.00;56587.81;5049742;28;20119;-57
2022/04/14 00:32:31;;;;;;;45.15;40.63;;;;;;;-148.33;100.00;56587.81;5051385;28;20314;-58
2022/04/14 00:34:57;;;;;;;44.33;39.97;;;;;;;-148.33;100.00;56587.81;5051762;28;20032;-56
2022/04/14 00:37:22;;;;;;;43.45;39.05;;;;;;;-148.33;100.00;56587.81;5051333;28;20040;-57
2022/04/14 00:39:49;;;;;;;48.00;42.90;;;;;;;-148.33;100.00;56587.81;5051808;28;20044;-57
2022/04/14 00:42:14;;;;;;;48.20;43.35;;;;;;;-148.33;100.00;56587.81;5051434;28;20028;-57
2022/04/14 00:44:40;;;;;;;46.53;41.80;;;;;;;-148.33;100.00;56587.81;5051394;28;20028;-56
2022/04/14 00:47:06;;;;;;;44.15;39.58;;;;;;;-148.33;100.00;56587.81;5051428;28;20020;-57
2022/04/14 00:49:33;;;;;;;46.50;41.60;;;;;;;-148.33;100.00;56587.81;5051292;28;20108;-56
2022/04/14 00:52:00;;;;;;;44.65;40.15;;;;;;;-148.33;100.00;56587.81;5051062;28;20033;-58
2022/04/14 00:54:25;;;;;;;46.97;42.28;;;;;;;-148.33;100.00;56587.81;5050874;28;20025;-58
2022/04/14 00:56:50;;;;;;;46.17;41.65;;;;;;;-148.33;100.00;56587.81;5050741;28;20024;-56
2022/04/14 00:59:16;;;;;;;49.38;44.15;;;;;;;-148.33;100.00;56587.81;5051224;28;20051;-56
2022/04/14 01:01:42;;;;;;;46.45;41.42;;;;;;;-148.33;100.00;56587.81;5049975;28;20025;-58
2022/04/14 01:04:10;;;;;;;50.25;44.85;;;;;;;-148.33;100.00;56587.81;5050634;28;20029;-56
2022/04/14 01:06:38;;;;;;;46.85;42.10;;;;;;;-148.33;100.00;56587.81;5050838;28;20024;-57
2022/04/14 01:09:18;;;;;;;48.70;43.72;;;;;;;-148.33;100.00;56587.81;5051253;28;20040;-57
2022/04/14 01:11:51;;;;;;;48.80;43.63;;;;;;;-148.33;100.00;56587.81;5050713;28;20036;-58
2022/04/14 01:14:28;;;;;;;49.90;44.75;;;;;;;-148.33;100.00;56587.81;5050297;28;20028;-57
2022/04/14 01:16:55;;;;;;;52.17;46.80;;;;;;;-148.33;100.00;56587.81;5050626;28;20025;-57
2022/04/14 01:19:20;;;;;;;49.75;44.42;;;;;;;-148.33;100.00;56587.81;5050757;28;20025;-57
2022/04/14 01:22:02;;;;;;;50.95;45.65;;;;;;;-148.33;100.00;56587.81;5049959;28;20546;-57
2022/04/14 01:24:29;;;;;;;53.28;47.65;;;;;;;-148.33;100.00;56587.81;5050327;28;20480;-57
2022/04/14 01:26:55;;;;;;;49.60;44.50;;;;;;;-148.33;100.00;56587.81;5050974;28;20575;-59
2022/04/14 01:29:25;;;;;;;48.90;43.83;;;;;;;-148.33;100.00;56587.81;5050731;28;20403;-59
2022/04/14 01:31:52;;;;;;;55.90;49.95;;;;;;;-148.33;100.00;56587.81;5049832;28;20231;-58
2022/04/14 01:34:18;;;;;;;52.13;46.63;;;;;;;-148.33;100.00;56587.81;5050478;28;20033;-58
2022/04/14 01:36:43;;;;;;;53.50;47.78;;;;;;;-148.33;100.00;56587.81;5050370;28;20031;-57
2022/04/14 01:39:11;;;;;;;53.33;47.72;;;;;;;-148.33;100.00;56587.81;5050250;28;20423;-58
2022/04/14 01:41:38;;;;;;;53.10;47.05;;;;;;;-148.33;100.00;56587.81;5048984;28;20029;-58
2022/04/14 01:44:04;;;;;;;60.42;52.65;;;;;;;-148.33;100.00;56587.81;5050604;28;20130;-59
2022/04/14 01:46:29;;;;;;;59.33;52.85;;;;;;;-148.33;100.00;56587.81;5049783;28;20028;-58
2022/04/14 01:48:54;;;;;;;60.80;53.08;;;;;;;-148.33;100.00;56587.81;5050394;28;20370;-58
2022/04/14 01:51:20;;;;;;;58.40;52.13;;;;;;;-148.33;100.00;56587.81;5050377;28;20074;-58
2022/04/14 01:53:45;;;;;;;60.05;53.72;;;;;;;-148.33;100.00;56587.81;5049305;28;20033;-58
2022/04/14 01:56:11;;;;;;;57.00;50.67;;;;;;;-148.33;100.00;56587.81;5050032;28;20029;-57
2022/04/14 01:58:36;;;;;;;60.20;53.20;;;;;;;-148.33;100.00;56587.81;5050092;28;20029;-57
2022/04/14 02:01:02;;;;;;;62.35;54.20;;;;;;;-148.33;100.00;56587.81;5049761;28;20033;-56
2022/04/14 02:03:27;;;;;;;55.10;49.03;;;;;;;-148.33;100.00;56587.81;5049783;28;20123;-56
2022/04/14 02:05:52;;;;;;;57.50;50.90;;;;;;;-148.33;100.00;56587.81;5049875;28;20032;-57
2022/04/14 02:08:17;;;;;;;54.80;48.65;;;;;;;-148.33;100.00;56587.81;5040414;28;20500;-57
2022/04/14 02:10:43;;;;;;;60.00;52.22;;;;;;;-148.33;100.00;56587.81;5029263;28;20032;-56
2022/04/14 02:13:08;;;;;;;58.88;51.47;;;;;;;-148.33;100.00;56587.81;5028681;28;20037;-56
2022/04/14 02:15:33;;;;;;;53.50;47.83;;;;;;;-148.33;100.00;56587.81;5029010;28;20022;-56
2022/04/14 02:17:58;;;;;;;52.47;46.00;;;;;;;-148.33;100.00;56587.81;5029636;28;20403;-58
2022/04/14 02:20:24;;;;;;;48.92;43.75;;;;;;;-148.33;100.00;56587.81;5029798;28;20079;-57
2022/04/14 02:22:49;;;;;;;48.65;43.65;;;;;;;-148.33;100.00;56587.81;5029093;28;20560;-57
2022/04/14 02:25:14;;;;;;;50.28;45.03;;;;;;;-148.33;100.00;56587.81;5027973;28;20076;-56
2022/04/14 02:27:40;;;;;;;51.17;45.70;;;;;;;-148.33;100.00;56587.81;5029501;28;20393;-56
2022/04/14 02:30:06;;;;;;;49.15;44.13;;;;;;;-148.33;100.00;56587.81;5028799;28;20112;-57
2022/04/14 02:32:31;;;;;;;50.05;44.80;;;;;;;-148.33;100.00;56587.81;5028547;28;20056;-56
2022/04/14 02:34:56;;;;;;;49.85;44.50;;;;;;;-148.33;100.00;56587.81;5028999;28;20485;-58
2022/04/14 02:37:22;;;;;;;47.63;42.63;;;;;;;-148.33;100.00;56587.81;5028118;28;20318;-57
2022/04/14 02:39:47;;;;;;;47.63;42.72;;;;;;;-148.33;100.00;56587.81;5028838;28;20025;-57
2022/04/14 02:42:12;;;;;;;46.15;41.33;;;;;;;-148.33;100.00;56587.81;5029363;28;20135;-58
2022/04/14 02:44:38;;;;;;;44.78;40.33;;;;;;;-148.33;100.00;56587.81;5029332;28;20029;-57
2022/04/14 02:47:03;;;;;;;46.50;41.67;;;;;;;-148.33;100.00;56587.81;5029320;28;20033;-57
2022/04/14 02:49:29;;;;;;;45.63;40.83;;;;;;;-148.33;100.00;56587.81;5029291;28;20390;-57
2022/04/14 02:51:54;;;;;;;47.45;42.55;;;;;;;-148.33;100.00;56587.81;5028667;28;20474;-56
2022/04/14 02:54:19;;;;;;;43.80;39.33;;;;;;;-148.33;100.00;56587.81;5029190;28;20039;-57
2022/04/14 02:56:44;;;;;;;43.33;38.83;;;;;;;-148.33;100.00;56587.81;5029358;28;20037;-56
2022/04/14 02:59:10;;;;;;;42.35;38.22;;;;;;;-148.33;100.00;56587.81;5028896;28;20429;-57
2022/04/14 03:01:35;;;;;;;44.17;39.58;;;;;;;-148.33;100.00;56587.81;5028946;28;20067;-56
2022/04/14 03:04:00;;;;;;;45.00;40.22;;;;;;;-148.33;100.00;56587.81;5028877;28;20033;-57
2022/04/14 03:06:26;;;;;;;44.33;39.92;;;;;;;-148.33;100.00;56587.81;5028959;28;20083;-57
2022/04/14 03:08:51;;;;;;;46.13;41.42;;;;;;;-148.33;100.00;56587.81;5028388;28;20433;-57
2022/04/14 03:11:16;;;;;;;46.22;41.53;;;;;;;-148.33;100.00;56587.81;5028708;28;20111;-57
2022/04/14 03:13:42;;;;;;;45.72;41.10;;;;;;;-148.33;100.00;56587.81;5029107;28;20062;-57
2022/04/14 03:16:08;;;;;;;49.03;43.80;;;;;;;-148.33;100.00;56587.81;5028755;28;20110;-57
2022/04/14 03:18:33;;;;;;;50.42;45.10;;;;;;;-148.33;100.00;56587.81;5028350;28;20039;-57
2022/04/14 03:20:58;;;;;;;53.95;48.15;;;;;;;-148.33;100.00;56587.81;5027937;28;20393;-57
2022/04/14 03:23:24;;;;;;;49.72;44.40;;;;;;;-148.33;100.00;56587.81;5028542;28;20025;-56
2022/04/14 03:25:49;;;;;;;51.08;45.60;;;;;;;-148.33;100.00;56587.81;5028952;28;20025;-56
2022/04/14 03:28:15;;;;;;;55.03;49.03;;;;;;;-148.33;100.00;56587.81;5028739;28;20029;-57
2022/04/14 03:30:40;;;;;;;53.05;45.88;;;;;;;-148.33;100.00;56587.81;5028564;28;20025;-57
2022/04/14 03:33:06;;;;;;;57.58;50.42;;;;;;;-148.33;100.00;56587.81;5028346;28;20136;-57
2022/04/14 03:35:31;;;;;;;59.30;52.00;;;;;;;-148.33;100.00;56587.81;5028201;28;20428;-58
2022/04/14 03:37:57;;;;;;;53.58;47.83;;;;;;;-148.33;100.00;56587.81;5028181;28;20056;-57
2022/04/14 03:40:22;;;;;;;58.20;51.00;;;;;;;-148.33;100.00;56587.81;5028292;28;20071;-57
2022/04/14 03:42:47;;;;;;;51.03;45.50;;;;;;;-148.33;100.00;56587.81;5028851;28;20060;-57
2022/04/14 03:45:13;;;;;;;53.72;48.08;;;;;;;-148.33;100.00;56587.81;5028330;28;20094;-58
2022/04/14 03:47:38;;;;;;;50.88;45.58;;;;;;;-148.33;100.00;56587.81;5028243;28;20041;-58
2022/04/14 03:50:04;;;;;;;48.25;43.08;;;;;;;-148.33;100.00;56587.81;5028203;28;20068;-56
2022/04/14 03:52:29;;;;;;;52.60;46.95;;;;;;;-148.33;100.00;56587.81;5028585;28;20067;-57
2022/04/14 03:54:54;;;;;;;49.17;43.88;;;;;;;-148.33;100.00;56587.81;5026960;28;20025;-56
2022/04/14 03:57:20;;;;;;;49.10;43.70;;;;;;;-148.33;100.00;56587.81;5028088;28;20037;-57
2022/04/14 03:59:45;;;;;;;56.55;48.58;;;;;;;-148.33;100.00;56587.81;5027745;28;20033;-57
2022/04/14 04:02:10;;;;;;;58.47;50.47;;;;;;;-148.33;100.00;56587.81;5028185;28;20524;-58
2022/04/14 04:04:36;;;;;;;60.13;52.25;;;;;;;-148.33;100.00;56587.81;5030381;28;20025;-57
2022/04/14 04:07:01;;;;;;;53.03;47.33;;;;;;;-148.33;100.00;56587.81;5031969;28;20025;-58
2022/04/14 04:09:27;;;;;;;56.83;49.38;;;;;;;-148.33;100.00;56587.81;5032211;28;20411;-57
2022/04/14 04:11:53;;;;;;;60.15;51.78;;;;;;;-148.33;100.00;56587.81;5032383;28;20454;-57
2022/04/14 04:14:18;;;;;;;63.78;53.55;;;;;;;-148.33;100.00;56587.81;5031890;28;20457;-58
2022/04/14 04:16:45;;;;;;;54.83;48.38;;;;;;;-148.33;100.00;56587.81;5032676;28;20092;-58
2022/04/14 04:19:10;;;;;;;69.32;58.33;;;;;;;-148.33;100.00;56587.81;5031967;28;20405;-58
2022/04/14 04:21:36;;;;;;;59.55;51.63;;;;;;;-148.33;100.00;56587.81;5031463;28;20038;-58
2022/04/14 04:24:01;;;;;;;48.75;43.55;;;;;;;-148.33;100.00;56587.81;5031485;28;20025;-58
2022/04/14 04:26:26;;;;;;;45.05;40.25;;;;;;;-148.33;100.00;56587.81;5032101;28;20151;-58
2022/04/14 04:28:51;;;;;;;44.67;39.78;;;;;;;-148.33;100.00;56587.81;5031927;28;20037;-57
2022/04/14 04:31:17;;;;;;;49.47;44.33;;;;;;;-148.33;100.00;56587.81;5032100;28;20029;-56
2022/04/14 04:33:42;;;;;;;43.13;38.72;;;;;;;-148.33;100.00;56587.81;5030716;28;20080;-57
2022/04/14 04:36:08;;;;;;;42.58;38.22;;;;;;;-148.33;100.00;56587.81;5032038;28;20116;-58
2022/04/14 04:38:33;;;;;;;44.45;39.80;;;;;;;-148.33;100.00;56587.81;5031510;28;20071;-58
2022/04/14 04:40:58;;;;;;;47.25;42.08;;;;;;;-148.33;100.00;56587.81;5029505;28;20477;-56
2022/04/14 04:43:25;;;;;;;43.60;39.00;;;;;;;-148.33;100.00;56587.81;5030215;28;20022;-58
2022/04/14 04:45:50;;;;;;;44.75;39.58;;;;;;;-148.33;100.00;56587.81;5029469;28;20030;-58
2022/04/14 04:48:15;;;;;;;43.45;38.95;;;;;;;-148.33;100.00;56587.81;5029794;28;20029;-57
2022/04/14 04:50:42;;;;;;;45.75;38.67;;;;;;;-148.33;100.00;56587.81;5029397;28;20634;-57
2022/04/14 04:53:07;;;;;;;43.45;38.75;;;;;;;-148.33;100.00;56587.81;5029361;28;20515;-56
2022/04/14 04:55:32;;;;;;;44.40;39.50;;;;;;;-148.33;100.00;56587.81;5029463;28;20030;-56
2022/04/14 04:57:58;;;;;;;46.58;41.42;;;;;;;-148.33;100.00;56587.81;5030458;28;20447;-57
2022/04/14 05:00:23;;;;;;;52.63;45.63;;;;;;;-148.33;100.00;56587.81;5031320;28;20056;-58
2022/04/14 05:02:49;;;;;;;74.97;54.35;;;;;;;-148.33;100.00;56587.81;5031191;28;20029;-58
2022/04/14 05:05:14;;;;;;;72.80;56.22;;;;;;;-148.33;100.00;56587.81;5031307;28;20026;-58
2022/04/14 05:07:39;;;;;;;81.15;60.17;;;;;;;-148.33;100.00;56587.81;5031088;28;20112;-57
2022/04/14 05:10:05;;;;;;;75.43;58.47;;;;;;;-148.33;100.00;56587.81;5031693;28;20025;-57
2022/04/14 05:12:30;;;;;;;80.55;59.33;;;;;;;-148.33;100.00;56587.81;5046555;28;20036;-58
2022/04/14 05:14:57;;;;;;;84.68;62.00;;;;;;;-148.33;100.00;56587.81;5036881;28;20040;-58
2022/04/14 05:17:22;;;;;;;85.38;61.13;;;;;;;-148.33;100.00;56587.81;5030981;28;20488;-58
2022/04/14 05:19:47;;;;;;;81.97;62.08;;;;;;;-148.33;100.00;56587.81;5029864;28;20029;-56
2022/04/14 05:22:12;;;;;;;85.30;62.75;;;;;;;-148.33;100.00;56587.81;5040847;28;20033;-56
2022/04/14 05:24:38;;;;;;;80.88;61.30;;;;;;;-148.33;100.00;56587.81;5046625;28;20076;-57
2022/04/14 05:27:03;;;;;;;78.85;59.90;;;;;;;-148.33;100.00;56587.81;5046827;28;20020;-57
2022/04/14 05:29:30;;;;;;;76.80;58.72;;;;;;;-148.33;100.00;56587.81;5043776;28;20384;-57
2022/04/14 05:31:56;;;;;;;73.05;56.72;;;;;;;-148.33;100.00;56587.81;5049225;28;20059;-56
2022/04/14 05:34:21;;;;;;;77.28;59.00;;;;;;;-148.33;100.00;56587.81;5046710;28;20033;-55
2022/04/14 05:36:46;;;;;;;71.45;56.00;;;;;;;-148.33;100.00;56587.81;5050477;28;20488;-56
2022/04/14 05:39:11;;;;;;;67.78;54.10;;;;;;;-148.33;100.00;56587.81;5050152;28;20029;-57
2022/04/14 05:41:37;;;;;;;71.00;53.90;;;;;;;-148.33;100.00;56587.81;5050376;28;20099;-56
2022/04/14 05:44:02;;;;;;;57.47;49.05;;;;;;;-148.33;100.00;56587.81;5050141;28;20037;-56
2022/04/14 05:46:27;;;;;;;53.53;46.88;;;;;;;-148.33;100.00;56587.81;5039448;28;20311;-56
2022/04/14 05:48:53;;;;;;;57.05;48.47;;;;;;;-148.33;100.00;56587.81;5030674;28;20041;-57
2022/04/14 05:51:20;;;;;;;53.45;46.55;;;;;;;-148.33;100.00;56587.81;5030361;28;20064;-56
2022/04/14 05:53:49;;;;;;;52.25;46.55;;;;;;;-148.33;100.00;56587.81;5029999;28;20108;-57
2022/04/14 05:56:15;;;;;;;51.45;45.85;;;;;;;-148.33;100.00;56587.81;5034075;28;20388;-58
2022/04/14 05:58:40;;;;;;;49.67;44.42;;;;;;;-148.33;100.00;56587.81;5045973;28;20025;-58
2022/04/14 06:01:06;;;;;;;49.42;44.08;;;;;;;-148.33;100.00;56587.81;5050589;28;20519;-57
2022/04/14 06:03:32;;;;;;;48.05;43.15;;;;;;;-148.33;100.00;56587.81;5048731;28;20021;-57
2022/04/14 06:05:57;;;;;;;48.42;43.35;;;;;;;-148.33;100.00;56587.81;5042993;28;20024;-58
2022/04/14 06:08:22;;;;;;;48.70;43.75;;;;;;;-148.33;100.00;56587.81;5043269;28;20528;-56
2022/04/14 06:10:47;;;;;;;46.80;41.72;;;;;;;-148.33;100.00;56587.81;5048350;28;20045;-58
2022/04/14 06:13:13;;;;;;;45.22;40.67;;;;;;;-148.33;100.00;56587.81;5040796;28;20025;-57
2022/04/14 06:15:38;;;;;;;43.03;38.70;;;;;;;-148.33;100.00;56587.81;5047404;28;20059;-56
2022/04/14 06:18:03;;;;;;;39.78;35.97;;;;;;;-148.33;100.00;56587.81;5048873;28;20465;-59
2022/04/14 06:20:29;;;;;;;38.85;35.05;;;;;;;-148.33;100.00;56587.81;5030878;28;20033;-56
2022/04/14 06:22:56;;;;;;;36.83;33.42;;;;;;;-148.33;100.00;56587.81;5029152;28;20072;-56
2022/04/14 06:25:22;;;;;;;36.83;33.33;;;;;;;-148.33;100.00;56587.81;5044044;28;20025;-57
2022/04/14 06:27:49;;;;;;;33.97;30.77;;;;;;;-148.33;100.00;56587.81;5048469;28;20493;-57
2022/04/14 06:30:16;;;;;;;34.17;30.98;;;;;;;-148.33;100.00;56587.81;5049370;28;20025;-57
2022/04/14 06:32:42;;;;;;;34.88;31.52;;;;;;;-148.33;100.00;56587.81;5048653;28;20056;-57
2022/04/14 06:35:13;;;;;;;34.65;31.35;;;;;;;-148.33;100.00;56587.81;5048813;28;20737;-57
2022/04/14 06:37:39;;;;;;;31.73;28.73;;;;;;;-148.33;100.00;56587.81;5049017;28;20043;-56
2022/04/14 06:40:04;;;;;;;31.20;28.25;;;;;;;-148.33;100.00;56587.81;5049028;28;20365;-57
2022/04/14 06:42:31;;;;;;;28.35;25.73;;;;;;;-148.33;100.00;56587.81;5048971;28;20071;-56
2022/04/14 06:44:59;;;;;;;27.30;24.85;;;;;;;-148.33;100.00;56587.81;5048810;28;20021;-57
2022/04/14 06:47:24;;;;;;;27.05;24.55;;;;;;;-148.33;100.00;56587.81;5046392;28;20120;-56
2022/04/14 06:49:49;;;;;;;27.17;24.58;;;;;;;-148.33;100.00;56587.81;5048848;28;20103;-56
2022/04/14 06:52:17;;;;;;;27.15;24.73;;;;;;;-148.33;100.00;56587.81;5048828;28;20046;-56
2022/04/14 06:54:43;;;;;;;23.02;20.95;;;;;;;-148.33;100.00;56587.81;5048698;28;20033;-57
2022/04/14 06:57:08;;;;;;;21.58;19.67;;;;;;;-148.33;100.00;56587.81;5048948;28;20675;-55
2022/04/14 06:59:33;;;;;;;23.80;21.48;;;;;;;-148.33;100.00;56587.81;5048824;28;20036;-57
2022/04/14 07:01:58;;;;;;;22.65;20.48;;;;;;;-148.33;100.00;56587.81;5048866;28;20028;-56
2022/04/14 07:04:24;;;;;;;21.73;19.77;;;;;;;-148.33;100.00;56587.81;5048943;28;20020;-57
2022/04/14 07:06:49;;;;;;;20.63;18.48;;;;;;;-148.33;100.00;56587.81;5047409;28;20033;-57
2022/04/14 07:09:14;;;;;;;19.98;18.15;;;;;;;-148.33;100.00;56587.81;5047082;28;20498;-58
2022/04/14 07:11:39;;;;;;;20.20;18.30;;;;;;;-148.33;100.00;56587.81;5045580;28;20062;-58
2022/04/14 07:14:05;;;;;;;19.20;17.27;;;;;;;-148.33;100.00;56587.81;5047647;28;20024;-56
2022/04/14 07:16:30;;;;;;;18.52;17.02;;;;;;;-148.33;100.00;56587.81;5047842;28;20024;-57
2022/04/14 07:18:55;;;;;;;17.00;15.35;;;;;;;-148.33;100.00;56587.81;5047638;28;20029;-56
2022/04/14 07:21:21;;;;;;;16.15;14.65;;;;;;;-148.33;100.00;56587.81;5048276;28;20028;-56
2022/04/14 07:23:46;;;;;;;18.20;16.48;;;;;;;-148.33;100.00;56587.81;5048257;28;20469;-56
2022/04/14 07:26:11;;;;;;;17.85;15.38;;;;;;;-148.33;100.00;56587.81;5048404;28;20029;-57
2022/04/14 07:28:36;;;;;;;14.80;13.40;;;;;;;-148.33;100.00;56587.81;5047715;28;20033;-58
2022/04/14 07:31:02;;;;;;;13.32;12.13;;;;;;;-148.33;100.00;56587.81;5048103;28;20099;-56
2022/04/14 07:33:28;;;;;;;14.48;13.25;;;;;;;-148.33;100.00;56587.81;5047734;28;20049;-57
2022/04/14 07:35:53;;;;;;;14.60;13.20;;;;;;;-148.33;100.00;56587.81;5047736;28;20443;-57
2022/04/14 07:38:19;;;;;;;13.73;12.52;;;;;;;-148.33;100.00;56587.81;5046949;28;20028;-58
2022/04/14 07:40:44;;;;;;;13.65;12.45;;;;;;;-148.33;100.00;56587.81;5048220;28;20209;-58
2022/04/14 07:43:10;;;;;;;14.43;13.13;;;;;;;-148.33;100.00;56587.81;5047251;28;20028;-57
2022/04/14 07:45:35;;;;;;;12.88;11.77;;;;;;;-148.33;100.00;56587.81;5048246;28;20021;-56
2022/04/14 07:48:01;;;;;;;13.35;12.15;;;;;;;-148.33;100.00;56587.81;5047551;28;20085;-57
2022/04/14 07:50:26;;;;;;;13.65;12.40;;;;;;;-148.33;100.00;56587.81;5048130;28;20031;-58
2022/04/14 07:52:55;;;;;;;14.57;13.13;;;;;;;-148.33;100.00;56587.81;5045553;28;20021;-58
2022/04/14 07:55:28;;;;;;;15.65;14.15;;;;;;;-148.33;100.00;56587.81;5047296;28;20033;-56
2022/04/14 07:57:55;;;;;;;14.73;13.32;;;;;;;-148.33;100.00;56587.81;5047994;28;20106;-58
2022/04/14 08:00:22;;;;;;;13.38;12.15;;;;;;;-148.33;100.00;56587.81;5047843;28;20596;-57
2022/04/14 08:02:56;;;;;;;15.02;13.63;;;;;;;-148.33;100.00;56587.81;5047086;28;20435;-58
2022/04/14 08:05:34;;;;;;;15.93;14.52;;;;;;;-148.33;100.00;56587.81;5045839;28;20050;-57
2022/04/14 08:08:02;;;;;;;16.90;15.40;;;;;;;-148.33;100.00;56587.81;5046751;28;20036;-57
2022/04/14 08:10:27;;;;;;;15.20;13.90;;;;;;;-148.33;100.00;56587.81;5047120;28;20469;-58
2022/04/14 08:12:53;;;;;;;14.68;13.38;;;;;;;-148.33;100.00;56587.81;5047196;28;20032;-59
2022/04/14 08:15:19;;;;;;;14.00;12.80;;;;;;;-148.33;100.00;56587.81;5047321;28;20032;-58
2022/04/14 08:17:44;;;;;;;14.73;13.52;;;;;;;-148.33;100.00;56587.81;5047614;28;20029;-57
2022/04/14 08:20:12;;;;;;;13.13;11.82;;;;;;;-148.33;100.00;56587.81;5047556;28;20859;-58
2022/04/14 08:22:47;;;;;;;13.10;11.90;;;;;;;-148.33;100.00;56587.81;5047948;28;20029;-58
2022/04/14 08:25:15;;;;;;;14.38;12.98;;;;;;;-148.33;100.00;56587.81;5047823;28;20025;-56
2022/04/14 08:27:40;;;;;;;12.88;11.30;;;;;;;-148.33;100.00;56587.81;5047015;28;20075;-59
2022/04/14 08:30:07;;;;;;;10.20;9.20;;;;;;;-148.33;100.00;56587.81;5047723;28;20051;-58
2022/04/14 08:32:34;;;;;;;10.98;9.88;;;;;;;-148.33;100.00;56587.81;5045469;28;20408;-58
2022/04/14 08:35:00;;;;;;;9.65;8.85;;;;;;;-148.33;100.00;56587.81;5047651;28;20056;-57
2022/04/14 08:37:26;;;;;;;9.40;8.43;;;;;;;-148.33;100.00;56587.81;5047775;28;20322;-59
2022/04/14 08:39:51;;;;;;;8.13;7.40;;;;;;;-148.33;100.00;56587.81;5047241;28;20125;-56
2022/04/14 08:42:24;;;;;;;9.13;8.23;;;;;;;-148.33;100.00;56587.81;5047714;28;20060;-58
2022/04/14 08:44:57;;;;;;;8.15;7.15;;;;;;;-148.33;100.00;56587.81;5046817;28;20017;-59
2022/04/14 08:47:27;;;;;;;8.73;7.82;;;;;;;-148.33;100.00;56587.81;5047529;28;20025;-58
2022/04/14 08:49:54;;;;;;;9.50;8.68;;;;;;;-148.33;100.00;56587.81;5048092;28;20027;-59
2022/04/14 08:52:21;;;;;;;9.70;8.90;;;;;;;-148.33;100.00;56587.81;5051513;28;20464;-59
2022/04/14 08:54:49;;;;;;;8.55;7.85;;;;;;;-148.33;100.00;56587.81;5051536;28;20144;-58
2022/04/14 08:57:16;;;;;;;9.30;8.30;;;;;;;-148.33;100.00;56587.81;5049688;28;20044;-58
2022/04/14 08:59:45;;;;;;;7.65;6.75;;;;;;;-148.33;100.00;56587.81;5051613;28;20591;-58
2022/04/14 09:02:17;;;;;;;7.88;7.10;;;;;;;-148.33;100.00;56587.81;5051320;28;20033;-58
2022/04/14 09:04:43;;;;;;;8.50;7.80;;;;;;;-148.33;100.00;56587.81;5051148;28;20025;-57
2022/04/14 09:07:13;;;;;;;8.43;7.63;;;;;;;-148.33;100.00;56587.81;5050922;28;20487;-58
2022/04/14 09:09:39;;;;;;;8.23;7.50;;;;;;;-148.33;100.00;56587.81;5050955;28;20032;-58
2022/04/14 09:12:06;;;;;;;8.93;8.02;;;;;;;-148.33;100.00;56587.81;5050946;28;20083;-57
2022/04/14 09:14:35;;;;;;;9.10;8.27;;;;;;;-148.33;100.00;56587.81;5050796;28;20112;-59
2022/04/14 09:17:02;;;;;;;8.38;7.15;;;;;;;-148.33;100.00;56587.81;5050606;28;20017;-59
2022/04/14 09:19:32;;;;;;;7.20;6.20;;;;;;;-148.33;100.00;56587.81;5051112;28;20053;-59
2022/04/14 09:22:02;;;;;;;8.05;6.47;;;;;;;-148.33;100.00;56587.81;5050039;28;20017;-57
2022/04/14 09:24:44;;;;;;;6.90;6.20;;;;;;;-148.33;100.00;56587.81;5050768;28;20013;-57
2022/04/14 09:27:23;;;;;;;6.20;5.60;;;;;;;-148.33;100.00;56587.81;5050570;28;20024;-59
2022/04/14 09:29:49;;;;;;;6.97;6.30;;;;;;;-148.33;100.00;56587.81;5050793;28;20460;-58
2022/04/14 09:32:33;;;;;;;7.78;5.50;;;;;;;-148.33;100.00;56587.81;5050401;28;20084;-57
2022/04/14 09:35:02;;;;;;;5.55;4.90;;;;;;;-148.33;100.00;56587.81;5050576;28;20295;-58
2022/04/14 09:37:28;;;;;;;6.57;5.97;;;;;;;-148.33;100.00;56587.81;5050788;28;20110;-59
2022/04/14 09:40:00;;;;;;;5.85;5.20;;;;;;;-148.33;100.00;56587.81;5050298;28;20546;-58
2022/04/14 09:42:31;;;;;;;6.57;5.40;;;;;;;-148.33;100.00;56587.81;5050806;28;20511;-59
2022/04/14 09:45:19;;;;;;;6.38;5.78;;;;;;;-148.33;100.00;56587.81;5050451;28;20074;-59
2022/04/14 09:47:44;;;;;;;5.72;5.22;;;;;;;-148.33;100.00;56587.81;5050685;28;20035;-57
2022/04/14 09:50:24;;;;;;;5.78;4.68;;;;;;;-148.33;100.00;56587.81;5050629;28;20029;-59
2022/04/14 09:52:58;;;;;;;4.63;3.83;;;;;;;-148.33;100.00;56587.81;5050171;28;20109;-59
2022/04/14 09:55:23;;;;;;;5.65;5.15;;;;;;;-148.33;100.00;56587.81;5050309;28;20409;-59
2022/04/14 09:58:25;;;;;;;7.00;5.35;;;;;;;-148.33;100.00;56587.81;5050182;28;20021;-58
2022/04/14 10:00:52;;;;;;;5.38;4.82;;;;;;;-148.33;100.00;56587.81;5027199;28;20033;-59
2022/04/14 10:03:29;;;;;;;5.47;4.38;;;;;;;-148.33;100.00;56587.81;5049689;28;20300;-58
2022/04/14 10:05:56;;;;;;;5.97;4.18;;;;;;;-148.33;100.00;56587.81;5050151;28;20484;-56
2022/04/14 10:08:24;;;;;;;4.43;4.03;;;;;;;-148.33;100.00;56587.81;5048918;28;20031;-58
2022/04/14 10:11:04;;;;;;;3.70;3.38;;;;;;;-148.33;100.00;56587.81;5050263;28;20488;-59
2022/04/14 10:13:37;;;;;;;3.95;3.63;;;;;;;-148.33;100.00;56587.81;5050088;28;20036;-58
2022/04/14 10:16:02;;;;;;;4.53;4.00;;;;;;;-148.33;100.00;56587.81;5049615;28;20029;-57
2022/04/14 10:18:28;;;;;;;3.80;3.42;;;;;;;-148.33;100.00;56587.81;5049805;28;20078;-56
2022/04/14 10:20:53;;;;;;;4.55;3.05;;;;;;;-148.33;100.00;56587.81;5048054;28;20021;-57
2022/04/14 10:23:19;;;;;;;2.22;2.03;;;;;;;-148.33;100.00;56587.81;5049743;28;20025;-59
2022/04/14 10:25:44;;;;;;;5.18;3.30;;;;;;;-148.33;100.00;56587.81;5049430;28;20389;-59
2022/04/14 10:28:13;;;;;;;3.97;1.92;;;;;;;-148.33;100.00;56587.81;5048350;28;20438;-59
2022/04/14 10:30:44;;;;;;;2.47;2.03;;;;;;;-148.33;100.00;56587.81;5048534;28;20033;-59
2022/04/14 10:33:10;;;;;;;3.67;2.78;;;;;;;-148.33;100.00;56587.81;5048923;28;20530;-58
2022/04/14 10:35:35;;;;;;;2.88;2.67;;;;;;;-148.33;100.00;56587.81;5049734;28;20117;-57
2022/04/14 10:38:28;;;;;;;2.97;2.45;;;;;;;-148.33;100.00;56587.81;5049388;28;20112;-58
2022/04/14 10:41:00;;;;;;;3.55;2.63;;;;;;;-148.33;100.00;56587.81;5049170;28;20021;-59
2022/04/14 10:43:26;;;;;;;3.25;2.60;;;;;;;-148.33;100.00;56587.81;5049543;28;20039;-59
2022/04/14 10:45:53;;;;;;;2.47;1.95;;;;;;;-148.33;100.00;56587.81;5049065;28;20013;-59
2022/04/14 10:48:28;;;;;;;3.63;3.10;;;;;;;-148.33;100.00;56587.81;5049318;28;20056;-57
2022/04/14 10:51:15;;;;;;;7.93;4.25;;;;;;;-148.33;100.00;56587.81;5049191;28;20039;-58
2022/04/14 10:54:01;;;;;;;3.58;3.00;;;;;;;-148.33;100.00;56587.81;5049060;28;20061;-57
2022/04/14 10:56:41;;;;;;;2.20;2.00;;;;;;;-148.33;100.00;56587.81;5049495;28;20191;-59